sensor_id;sensor_type;location;lat;lon;timestamp;temperature;humidity
4052;DHT22;2040;50.924;11.604;2023-12-29T00:00:27;7.00;99.90
4052;DHT22;2040;50.924;11.604;2023-12-29T00:02:52;7.00;99.90
4052;DHT22;2040;50.924;11.604;2023-12-29T00:05:18;7.00;99.90
4052;DHT22;2040;50.924;11.604;2023-12-29T00:07:43;7.00;99.90
4052;DHT22;2040;50.924;11.604;2023-12-29T00:10:09;7.10;99.90
4052;DHT22;2040;50.924;11.604;2023-12-29T00:12:34;7.00;99.90
4052;DHT22;2040;50.924;11.604;2023-12-29T00:15:00;7.00;99.90
4052;DHT22;2040;50.924;11.604;2023-12-29T00:17:25;7.00;99.90
4052;DHT22;2040;50.924;11.604;2023-12-29T00:19:51;7.10;99.90
4052;DHT22;2040;50.924;11.604;2023-12-29T00:22:19;7.10;99.90
4052;DHT22;2040;50.924;11.604;2023-12-29T00:24:44;7.10;99.90
4052;DHT22;2040;50.924;11.604;2023-12-29T00:27:10;7.00;99.90
4052;DHT22;2040;50.924;11.604;2023-12-29T00:29:36;7.00;99.90
4052;DHT22;2040;50.924;11.604;2023-12-29T00:32:01;7.00;99.90
4052;DHT22;2040;50.924;11.604;2023-12-29T00:34:28;7.00;99.90
4052;DHT22;2040;50.924;11.604;2023-12-29T00:36:53;7.00;99.90
4052;DHT22;2040;50.924;11.604;2023-12-29T00:39:19;6.90;99.90
4052;DHT22;2040;50.924;11.604;2023-12-29T00:41:44;6.90;99.90
4052;DHT22;2040;50.924;11.604;2023-12-29T00:44:10;6.90;99.90
4052;DHT22;2040;50.924;11.604;2023-12-29T00:46:35;6.90;99.90
4052;DHT22;2040;50.924;11.604;2023-12-29T00:49:01;6.80;99.90
4052;DHT22;2040;50.924;11.604;2023-12-29T00:51:26;6.70;99.90
4052;DHT22;2040;50.924;11.604;2023-12-29T00:53:52;6.80;99.90
4052;DHT22;2040;50.924;11.604;2023-12-29T00:56:17;6.90;99.90
4052;DHT22;2040;50.924;11.604;2023-12-29T00:58:43;6.80;99.90
4052;DHT22;2040;50.924;11.604;2023-12-29T01:01:08;6.80;99.90
4052;DHT22;2040;50.924;11.604;2023-12-29T01:03:36;6.80;99.90
4052;DHT22;2040;50.924;11.604;2023-12-29T01:06:02;6.80;99.90
4052;DHT22;2040;50.924;11.604;2023-12-29T01:08:28;6.90;99.90
4052;DHT22;2040;50.924;11.604;2023-12-29T01:10:53;6.80;99.90
4052;DHT22;2040;50.924;11.604;2023-12-29T01:13:19;6.70;99.90
4052;DHT22;2040;50.924;11.604;2023-12-29T01:15:44;6.80;99.90
4052;DHT22;2040;50.924;11.604;2023-12-29T01:18:11;6.70;99.90
4052;DHT22;2040;50.924;11.604;2023-12-29T01:20:37;6.80;99.90
4052;DHT22;2040;50.924;11.604;2023-12-29T01:23:05;6.70;99.90
4052;DHT22;2040;50.924;11.604;2023-12-29T01:25:30;6.70;99.90
4052;DHT22;2040;50.924;11.604;2023-12-29T01:27:56;6.70;99.90
4052;DHT22;2040;50.924;11.604;2023-12-29T01:30:21;6.80;99.90
4052;DHT22;2040;50.924;11.604;2023-12-29T01:32:47;6.80;99.90
4052;DHT22;2040;50.924;11.604;2023-12-29T01:35:12;6.80;99.90
4052;DHT22;2040;50.924;11.604;2023-12-29T01:37:38;6.80;99.90
4052;DHT22;2040;50.924;11.604;2023-12-29T01:40:04;6.80;99.90
4052;DHT22;2040;50.924;11.604;2023-12-29T01:42:29;6.90;99.90
4052;DHT22;2040;50.924;11.604;2023-12-29T01:44:55;6.90;99.90
4052;DHT22;2040;50.924;11.604;2023-12-29T01:47:22;6.90;99.90
4052;DHT22;2040;50.924;11.604;2023-12-29T01:49:48;6.90;99.90
4052;DHT22;2040;50.924;11.604;2023-12-29T01:52:16;6.90;99.90
4052;DHT22;2040;50.924;11.604;2023-12-29T01:54:43;6.80;99.90
4052;DHT22;2040;50.924;11.604;2023-12-29T01:57:09;6.80;99.90
4052;DHT22;2040;50.924;11.604;2023-12-29T01:59:36;6.80;99.90
4052;DHT22;2040;50.924;11.604;2023-12-29T02:02:03;6.80;99.90
4052;DHT22;2040;50.924;11.604;2023-12-29T02:04:30;6.80;99.90
4052;DHT22;2040;50.924;11.604;2023-12-29T02:06:56;6.80;99.90
4052;DHT22;2040;50.924;11.604;2023-12-29T02:09:22;6.90;99.90
4052;DHT22;2040;50.924;11.604;2023-12-29T02:11:48;7.00;99.90
4052;DHT22;2040;50.924;11.604;2023-12-29T02:14:14;7.00;99.90
4052;DHT22;2040;50.924;11.604;2023-12-29T02:16:58;6.90;99.90
4052;DHT22;2040;50.924;11.604;2023-12-29T02:19:46;6.80;99.90
4052;DHT22;2040;50.924;11.604;2023-12-29T02:22:14;6.80;99.90
4052;DHT22;2040;50.924;11.604;2023-12-29T02:24:44;6.80;99.90
4052;DHT22;2040;50.924;11.604;2023-12-29T02:29:44;6.80;99.90
4052;DHT22;2040;50.924;11.604;2023-12-29T02:32:16;6.80;99.90
4052;DHT22;2040;50.924;11.604;2023-12-29T02:34:44;6.80;99.90
4052;DHT22;2040;50.924;11.604;2023-12-29T02:37:13;6.80;99.90
4052;DHT22;2040;50.924;11.604;2023-12-29T02:39:39;6.80;99.90
4052;DHT22;2040;50.924;11.604;2023-12-29T02:42:05;6.80;99.90
4052;DHT22;2040;50.924;11.604;2023-12-29T02:44:30;6.80;99.90
4052;DHT22;2040;50.924;11.604;2023-12-29T02:46:56;6.80;99.90
4052;DHT22;2040;50.924;11.604;2023-12-29T02:49:22;6.80;99.90
4052;DHT22;2040;50.924;11.604;2023-12-29T02:51:47;6.80;99.90
4052;DHT22;2040;50.924;11.604;2023-12-29T02:54:15;6.80;99.90
4052;DHT22;2040;50.924;11.604;2023-12-29T02:56:40;6.90;99.90
4052;DHT22;2040;50.924;11.604;2023-12-29T02:59:06;6.90;99.90
4052;DHT22;2040;50.924;11.604;2023-12-29T03:01:31;6.90;99.90
4052;DHT22;2040;50.924;11.604;2023-12-29T03:03:57;6.90;99.90
4052;DHT22;2040;50.924;11.604;2023-12-29T03:06:22;6.90;99.90
4052;DHT22;2040;50.924;11.604;2023-12-29T03:08:48;6.90;99.90
4052;DHT22;2040;50.924;11.604;2023-12-29T03:11:14;7.00;99.90
4052;DHT22;2040;50.924;11.604;2023-12-29T03:13:39;7.00;99.90
4052;DHT22;2040;50.924;11.604;2023-12-29T03:16:05;7.00;99.90
4052;DHT22;2040;50.924;11.604;2023-12-29T03:18:30;7.00;99.90
4052;DHT22;2040;50.924;11.604;2023-12-29T03:20:56;7.10;99.90
4052;DHT22;2040;50.924;11.604;2023-12-29T03:23:22;7.10;99.90
4052;DHT22;2040;50.924;11.604;2023-12-29T03:25:47;7.10;99.90
4052;DHT22;2040;50.924;11.604;2023-12-29T03:28:13;7.00;99.90
4052;DHT22;2040;50.924;11.604;2023-12-29T03:30:38;7.00;99.90
4052;DHT22;2040;50.924;11.604;2023-12-29T03:33:04;7.00;99.90
4052;DHT22;2040;50.924;11.604;2023-12-29T03:35:29;7.10;99.90
4052;DHT22;2040;50.924;11.604;2023-12-29T03:37:55;7.10;99.90
4052;DHT22;2040;50.924;11.604;2023-12-29T03:40:20;7.10;99.90
4052;DHT22;2040;50.924;11.604;2023-12-29T03:42:46;7.20;99.90
4052;DHT22;2040;50.924;11.604;2023-12-29T03:45:11;7.20;99.90
4052;DHT22;2040;50.924;11.604;2023-12-29T03:47:37;7.20;99.90
4052;DHT22;2040;50.924;11.604;2023-12-29T03:50:03;7.20;99.90
4052;DHT22;2040;50.924;11.604;2023-12-29T03:52:28;7.20;99.90
4052;DHT22;2040;50.924;11.604;2023-12-29T03:54:54;7.20;99.90
4052;DHT22;2040;50.924;11.604;2023-12-29T03:57:19;7.20;99.90
4052;DHT22;2040;50.924;11.604;2023-12-29T03:59:45;7.30;99.90
4052;DHT22;2040;50.924;11.604;2023-12-29T04:02:11;7.30;99.90
4052;DHT22;2040;50.924;11.604;2023-12-29T04:04:37;7.30;99.90
4052;DHT22;2040;50.924;11.604;2023-12-29T04:07:03;7.30;99.90
4052;DHT22;2040;50.924;11.604;2023-12-29T04:09:29;7.30;99.90
4052;DHT22;2040;50.924;11.604;2023-12-29T04:11:54;7.30;99.90
4052;DHT22;2040;50.924;11.604;2023-12-29T04:14:20;7.40;99.90
4052;DHT22;2040;50.924;11.604;2023-12-29T04:16:46;7.50;99.90
4052;DHT22;2040;50.924;11.604;2023-12-29T04:19:11;7.50;99.90
4052;DHT22;2040;50.924;11.604;2023-12-29T04:21:37;7.50;99.90
4052;DHT22;2040;50.924;11.604;2023-12-29T04:24:02;7.50;99.90
4052;DHT22;2040;50.924;11.604;2023-12-29T04:26:28;7.50;99.90
4052;DHT22;2040;50.924;11.604;2023-12-29T04:28:53;7.50;99.90
4052;DHT22;2040;50.924;11.604;2023-12-29T04:31:19;7.50;99.90
4052;DHT22;2040;50.924;11.604;2023-12-29T04:33:44;7.50;99.90
4052;DHT22;2040;50.924;11.604;2023-12-29T04:36:10;7.50;99.90
4052;DHT22;2040;50.924;11.604;2023-12-29T04:38:35;7.50;99.90
4052;DHT22;2040;50.924;11.604;2023-12-29T04:41:01;7.40;99.90
4052;DHT22;2040;50.924;11.604;2023-12-29T04:43:26;7.50;99.90
4052;DHT22;2040;50.924;11.604;2023-12-29T04:45:52;7.50;99.90
4052;DHT22;2040;50.924;11.604;2023-12-29T04:48:17;7.50;99.90
4052;DHT22;2040;50.924;11.604;2023-12-29T04:50:43;7.50;99.90
4052;DHT22;2040;50.924;11.604;2023-12-29T04:53:08;7.60;99.90
4052;DHT22;2040;50.924;11.604;2023-12-29T04:55:34;7.50;99.90
4052;DHT22;2040;50.924;11.604;2023-12-29T04:57:59;7.60;99.90
4052;DHT22;2040;50.924;11.604;2023-12-29T05:00:25;7.50;99.90
4052;DHT22;2040;50.924;11.604;2023-12-29T05:02:50;7.50;99.90
4052;DHT22;2040;50.924;11.604;2023-12-29T05:05:16;7.50;99.90
4052;DHT22;2040;50.924;11.604;2023-12-29T05:07:41;7.50;99.90
4052;DHT22;2040;50.924;11.604;2023-12-29T05:10:07;7.50;99.90
4052;DHT22;2040;50.924;11.604;2023-12-29T05:12:33;7.50;99.90
4052;DHT22;2040;50.924;11.604;2023-12-29T05:14:59;7.50;99.90
4052;DHT22;2040;50.924;11.604;2023-12-29T05:17:24;7.50;99.90
4052;DHT22;2040;50.924;11.604;2023-12-29T05:19:50;7.50;99.90
4052;DHT22;2040;50.924;11.604;2023-12-29T05:22:15;7.40;99.90
4052;DHT22;2040;50.924;11.604;2023-12-29T05:24:43;7.60;99.90
4052;DHT22;2040;50.924;11.604;2023-12-29T05:27:08;7.50;99.90
4052;DHT22;2040;50.924;11.604;2023-12-29T05:29:34;7.50;99.90
4052;DHT22;2040;50.924;11.604;2023-12-29T05:31:59;7.50;99.90
4052;DHT22;2040;50.924;11.604;2023-12-29T05:34:27;7.40;99.90
4052;DHT22;2040;50.924;11.604;2023-12-29T05:36:53;7.40;99.90
4052;DHT22;2040;50.924;11.604;2023-12-29T05:39:18;7.30;99.90
4052;DHT22;2040;50.924;11.604;2023-12-29T05:41:44;7.30;99.90
4052;DHT22;2040;50.924;11.604;2023-12-29T05:44:09;7.30;99.90
4052;DHT22;2040;50.924;11.604;2023-12-29T05:46:35;7.40;99.90
4052;DHT22;2040;50.924;11.604;2023-12-29T05:49:00;7.40;99.90
4052;DHT22;2040;50.924;11.604;2023-12-29T05:51:26;7.30;99.90
4052;DHT22;2040;50.924;11.604;2023-12-29T05:53:51;7.30;99.90
4052;DHT22;2040;50.924;11.604;2023-12-29T05:56:17;7.30;99.90
4052;DHT22;2040;50.924;11.604;2023-12-29T05:58:43;7.40;99.90
4052;DHT22;2040;50.924;11.604;2023-12-29T06:01:09;7.40;99.90
4052;DHT22;2040;50.924;11.604;2023-12-29T06:03:35;7.30;99.90
4052;DHT22;2040;50.924;11.604;2023-12-29T06:06:01;7.40;99.90
4052;DHT22;2040;50.924;11.604;2023-12-29T06:08:26;7.40;99.90
4052;DHT22;2040;50.924;11.604;2023-12-29T06:10:52;7.40;99.90
4052;DHT22;2040;50.924;11.604;2023-12-29T06:13:17;7.50;99.90
4052;DHT22;2040;50.924;11.604;2023-12-29T06:15:43;7.50;99.90
4052;DHT22;2040;50.924;11.604;2023-12-29T06:18:09;7.50;99.90
4052;DHT22;2040;50.924;11.604;2023-12-29T06:20:34;7.40;99.90
4052;DHT22;2040;50.924;11.604;2023-12-29T06:23:00;7.40;99.90
4052;DHT22;2040;50.924;11.604;2023-12-29T06:25:26;7.40;99.90
4052;DHT22;2040;50.924;11.604;2023-12-29T06:27:51;7.40;99.90
4052;DHT22;2040;50.924;11.604;2023-12-29T06:30:17;7.50;99.90
4052;DHT22;2040;50.924;11.604;2023-12-29T06:32:42;7.70;99.90
4052;DHT22;2040;50.924;11.604;2023-12-29T06:35:08;7.70;99.90
4052;DHT22;2040;50.924;11.604;2023-12-29T06:37:37;7.60;99.90
4052;DHT22;2040;50.924;11.604;2023-12-29T06:40:05;7.60;99.90
4052;DHT22;2040;50.924;11.604;2023-12-29T06:42:31;7.50;99.90
4052;DHT22;2040;50.924;11.604;2023-12-29T06:44:56;7.50;99.90
4052;DHT22;2040;50.924;11.604;2023-12-29T06:47:22;7.50;99.90
4052;DHT22;2040;50.924;11.604;2023-12-29T06:49:48;7.40;99.90
4052;DHT22;2040;50.924;11.604;2023-12-29T06:52:13;7.40;99.90
4052;DHT22;2040;50.924;11.604;2023-12-29T06:54:39;7.40;99.90
4052;DHT22;2040;50.924;11.604;2023-12-29T06:57:04;7.50;99.90
4052;DHT22;2040;50.924;11.604;2023-12-29T06:59:30;7.60;99.90
4052;DHT22;2040;50.924;11.604;2023-12-29T07:01:56;7.70;99.90
4052;DHT22;2040;50.924;11.604;2023-12-29T07:04:21;7.70;99.90
4052;DHT22;2040;50.924;11.604;2023-12-29T07:06:47;7.80;99.90
4052;DHT22;2040;50.924;11.604;2023-12-29T07:09:12;7.80;99.90
4052;DHT22;2040;50.924;11.604;2023-12-29T07:11:39;7.90;99.90
4052;DHT22;2040;50.924;11.604;2023-12-29T07:14:04;7.90;99.90
4052;DHT22;2040;50.924;11.604;2023-12-29T07:16:30;8.00;99.90
4052;DHT22;2040;50.924;11.604;2023-12-29T07:18:55;8.00;99.90
4052;DHT22;2040;50.924;11.604;2023-12-29T07:21:21;8.00;99.90
4052;DHT22;2040;50.924;11.604;2023-12-29T07:23:46;8.00;99.90
4052;DHT22;2040;50.924;11.604;2023-12-29T07:26:12;8.00;99.90
4052;DHT22;2040;50.924;11.604;2023-12-29T07:28:37;8.00;99.90
4052;DHT22;2040;50.924;11.604;2023-12-29T07:31:03;8.10;99.90
4052;DHT22;2040;50.924;11.604;2023-12-29T07:33:30;8.10;99.90
4052;DHT22;2040;50.924;11.604;2023-12-29T07:35:55;8.10;99.90
4052;DHT22;2040;50.924;11.604;2023-12-29T07:38:21;8.10;99.90
4052;DHT22;2040;50.924;11.604;2023-12-29T07:40:46;8.20;99.90
4052;DHT22;2040;50.924;11.604;2023-12-29T07:43:13;8.20;99.90
4052;DHT22;2040;50.924;11.604;2023-12-29T07:45:39;8.20;99.90
4052;DHT22;2040;50.924;11.604;2023-12-29T07:48:05;8.20;99.90
4052;DHT22;2040;50.924;11.604;2023-12-29T07:50:30;8.30;99.90
4052;DHT22;2040;50.924;11.604;2023-12-29T07:52:56;8.20;99.90
4052;DHT22;2040;50.924;11.604;2023-12-29T07:55:21;8.20;99.90
4052;DHT22;2040;50.924;11.604;2023-12-29T07:57:47;8.20;99.90
4052;DHT22;2040;50.924;11.604;2023-12-29T08:00:17;8.20;99.90
4052;DHT22;2040;50.924;11.604;2023-12-29T08:02:42;8.40;99.90
4052;DHT22;2040;50.924;11.604;2023-12-29T08:05:08;8.30;99.90
4052;DHT22;2040;50.924;11.604;2023-12-29T08:07:34;8.40;99.90
4052;DHT22;2040;50.924;11.604;2023-12-29T08:10:00;8.40;99.90
4052;DHT22;2040;50.924;11.604;2023-12-29T08:12:26;8.40;99.90
4052;DHT22;2040;50.924;11.604;2023-12-29T08:14:53;8.40;99.90
4052;DHT22;2040;50.924;11.604;2023-12-29T08:17:19;8.40;99.90
4052;DHT22;2040;50.924;11.604;2023-12-29T08:19:44;8.40;99.90
4052;DHT22;2040;50.924;11.604;2023-12-29T08:22:10;8.40;99.90
4052;DHT22;2040;50.924;11.604;2023-12-29T08:24:35;8.40;99.90
4052;DHT22;2040;50.924;11.604;2023-12-29T08:27:02;8.40;99.90
4052;DHT22;2040;50.924;11.604;2023-12-29T08:29:28;8.50;99.90
4052;DHT22;2040;50.924;11.604;2023-12-29T08:31:54;8.40;99.90
4052;DHT22;2040;50.924;11.604;2023-12-29T08:34:19;8.50;99.90
4052;DHT22;2040;50.924;11.604;2023-12-29T08:36:45;8.50;99.90
4052;DHT22;2040;50.924;11.604;2023-12-29T08:39:10;8.50;99.90
4052;DHT22;2040;50.924;11.604;2023-12-29T08:41:37;8.60;99.90
4052;DHT22;2040;50.924;11.604;2023-12-29T08:44:03;8.50;99.90
4052;DHT22;2040;50.924;11.604;2023-12-29T08:46:29;8.50;99.90
4052;DHT22;2040;50.924;11.604;2023-12-29T08:48:55;8.60;99.90
4052;DHT22;2040;50.924;11.604;2023-12-29T08:51:20;8.60;99.90
4052;DHT22;2040;50.924;11.604;2023-12-29T08:53:46;8.60;99.90
4052;DHT22;2040;50.924;11.604;2023-12-29T08:56:11;8.60;99.90
4052;DHT22;2040;50.924;11.604;2023-12-29T08:58:39;8.60;99.90
4052;DHT22;2040;50.924;11.604;2023-12-29T09:01:05;8.60;99.90
4052;DHT22;2040;50.924;11.604;2023-12-29T09:03:30;8.60;99.90
4052;DHT22;2040;50.924;11.604;2023-12-29T09:05:56;8.60;99.90
4052;DHT22;2040;50.924;11.604;2023-12-29T09:08:22;8.60;99.90
4052;DHT22;2040;50.924;11.604;2023-12-29T09:10:47;8.60;99.90
4052;DHT22;2040;50.924;11.604;2023-12-29T09:13:13;8.60;99.90
4052;DHT22;2040;50.924;11.604;2023-12-29T09:15:39;8.60;99.90
4052;DHT22;2040;50.924;11.604;2023-12-29T09:18:04;8.60;99.90
4052;DHT22;2040;50.924;11.604;2023-12-29T09:20:31;8.70;99.90
4052;DHT22;2040;50.924;11.604;2023-12-29T09:22:57;8.80;99.90
4052;DHT22;2040;50.924;11.604;2023-12-29T09:25:23;8.70;99.90
4052;DHT22;2040;50.924;11.604;2023-12-29T09:27:49;8.80;99.90
4052;DHT22;2040;50.924;11.604;2023-12-29T09:30:17;8.80;99.90
4052;DHT22;2040;50.924;11.604;2023-12-29T09:32:43;8.80;99.90
4052;DHT22;2040;50.924;11.604;2023-12-29T09:35:08;8.80;99.90
4052;DHT22;2040;50.924;11.604;2023-12-29T09:37:34;8.90;99.90
4052;DHT22;2040;50.924;11.604;2023-12-29T09:39:59;8.90;99.90
4052;DHT22;2040;50.924;11.604;2023-12-29T09:42:28;8.90;99.90
4052;DHT22;2040;50.924;11.604;2023-12-29T09:44:54;8.80;99.90
4052;DHT22;2040;50.924;11.604;2023-12-29T09:47:24;8.80;99.90
4052;DHT22;2040;50.924;11.604;2023-12-29T09:49:52;8.80;99.90
4052;DHT22;2040;50.924;11.604;2023-12-29T09:52:22;8.80;99.90
4052;DHT22;2040;50.924;11.604;2023-12-29T09:54:49;8.80;99.90
4052;DHT22;2040;50.924;11.604;2023-12-29T09:57:17;8.80;99.90
4052;DHT22;2040;50.924;11.604;2023-12-29T09:59:43;8.90;99.90
4052;DHT22;2040;50.924;11.604;2023-12-29T10:02:14;9.00;99.90
4052;DHT22;2040;50.924;11.604;2023-12-29T10:04:41;9.10;99.90
4052;DHT22;2040;50.924;11.604;2023-12-29T10:07:07;9.10;99.90
4052;DHT22;2040;50.924;11.604;2023-12-29T10:09:34;9.10;99.90
4052;DHT22;2040;50.924;11.604;2023-12-29T10:12:03;9.20;99.90
4052;DHT22;2040;50.924;11.604;2023-12-29T10:14:41;9.20;99.90
4052;DHT22;2040;50.924;11.604;2023-12-29T10:17:21;9.30;99.90
4052;DHT22;2040;50.924;11.604;2023-12-29T10:20:02;9.30;99.90
4052;DHT22;2040;50.924;11.604;2023-12-29T10:22:54;9.30;99.90
4052;DHT22;2040;50.924;11.604;2023-12-29T10:25:23;9.40;99.90
4052;DHT22;2040;50.924;11.604;2023-12-29T10:27:50;9.40;99.90
4052;DHT22;2040;50.924;11.604;2023-12-29T10:30:16;9.50;99.90
4052;DHT22;2040;50.924;11.604;2023-12-29T10:32:41;9.50;99.90
4052;DHT22;2040;50.924;11.604;2023-12-29T10:35:08;9.60;99.90
4052;DHT22;2040;50.924;11.604;2023-12-29T10:37:35;9.60;99.90
4052;DHT22;2040;50.924;11.604;2023-12-29T10:40:00;9.70;99.90
4052;DHT22;2040;50.924;11.604;2023-12-29T10:42:26;9.80;99.90
4052;DHT22;2040;50.924;11.604;2023-12-29T10:45:05;9.90;99.90
4052;DHT22;2040;50.924;11.604;2023-12-29T10:47:31;9.80;99.90
4052;DHT22;2040;50.924;11.604;2023-12-29T10:49:58;9.70;99.90
4052;DHT22;2040;50.924;11.604;2023-12-29T10:52:24;9.70;99.90
4052;DHT22;2040;50.924;11.604;2023-12-29T10:54:54;9.60;99.90
4052;DHT22;2040;50.924;11.604;2023-12-29T10:57:28;9.60;99.90
4052;DHT22;2040;50.924;11.604;2023-12-29T10:59:57;9.70;99.90
4052;DHT22;2040;50.924;11.604;2023-12-29T11:02:23;9.70;99.90
4052;DHT22;2040;50.924;11.604;2023-12-29T11:04:48;9.80;99.90
4052;DHT22;2040;50.924;11.604;2023-12-29T11:07:16;9.90;99.90
4052;DHT22;2040;50.924;11.604;2023-12-29T11:10:00;9.90;99.90
4052;DHT22;2040;50.924;11.604;2023-12-29T11:12:29;10.00;99.90
4052;DHT22;2040;50.924;11.604;2023-12-29T11:14:55;10.10;99.90
4052;DHT22;2040;50.924;11.604;2023-12-29T11:17:21;10.00;99.90
4052;DHT22;2040;50.924;11.604;2023-12-29T11:19:47;10.10;99.90
4052;DHT22;2040;50.924;11.604;2023-12-29T11:22:16;10.10;99.90
4052;DHT22;2040;50.924;11.604;2023-12-29T11:24:45;10.20;99.90
4052;DHT22;2040;50.924;11.604;2023-12-29T11:27:11;10.20;99.90
4052;DHT22;2040;50.924;11.604;2023-12-29T11:29:38;10.20;99.90
4052;DHT22;2040;50.924;11.604;2023-12-29T11:32:06;10.20;99.90
4052;DHT22;2040;50.924;11.604;2023-12-29T11:34:44;10.20;99.90
4052;DHT22;2040;50.924;11.604;2023-12-29T11:37:18;10.20;99.90
4052;DHT22;2040;50.924;11.604;2023-12-29T11:39:52;10.20;99.90
4052;DHT22;2040;50.924;11.604;2023-12-29T11:42:27;10.20;99.90
4052;DHT22;2040;50.924;11.604;2023-12-29T11:44:55;10.20;99.90
4052;DHT22;2040;50.924;11.604;2023-12-29T11:47:37;10.20;99.90
4052;DHT22;2040;50.924;11.604;2023-12-29T11:50:04;10.20;99.90
4052;DHT22;2040;50.924;11.604;2023-12-29T11:52:37;10.10;99.90
4052;DHT22;2040;50.924;11.604;2023-12-29T11:55:15;10.00;99.90
4052;DHT22;2040;50.924;11.604;2023-12-29T11:57:43;9.90;99.90
4052;DHT22;2040;50.924;11.604;2023-12-29T12:00:10;9.90;99.90
4052;DHT22;2040;50.924;11.604;2023-12-29T12:02:36;10.00;99.90
4052;DHT22;2040;50.924;11.604;2023-12-29T12:05:02;10.00;99.90
4052;DHT22;2040;50.924;11.604;2023-12-29T12:12:45;10.00;99.90
4052;DHT22;2040;50.924;11.604;2023-12-29T12:17:58;10.00;99.90
4052;DHT22;2040;50.924;11.604;2023-12-29T12:20:24;10.00;99.90
4052;DHT22;2040;50.924;11.604;2023-12-29T12:22:59;10.00;99.90
4052;DHT22;2040;50.924;11.604;2023-12-29T12:25:30;10.00;99.90
4052;DHT22;2040;50.924;11.604;2023-12-29T12:27:56;10.00;99.90
4052;DHT22;2040;50.924;11.604;2023-12-29T12:30:22;10.10;99.90
4052;DHT22;2040;50.924;11.604;2023-12-29T12:32:58;10.10;99.90
4052;DHT22;2040;50.924;11.604;2023-12-29T12:35:24;10.20;99.90
4052;DHT22;2040;50.924;11.604;2023-12-29T12:38:15;10.20;99.90
4052;DHT22;2040;50.924;11.604;2023-12-29T12:40:46;10.30;99.90
4052;DHT22;2040;50.924;11.604;2023-12-29T12:43:16;10.30;99.90
4052;DHT22;2040;50.924;11.604;2023-12-29T12:45:47;10.20;99.90
4052;DHT22;2040;50.924;11.604;2023-12-29T12:48:36;10.20;99.90
4052;DHT22;2040;50.924;11.604;2023-12-29T12:51:05;10.10;99.90
4052;DHT22;2040;50.924;11.604;2023-12-29T12:53:30;10.10;99.90
4052;DHT22;2040;50.924;11.604;2023-12-29T12:55:56;10.10;99.90
4052;DHT22;2040;50.924;11.604;2023-12-29T12:58:22;10.10;99.90
4052;DHT22;2040;50.924;11.604;2023-12-29T13:00:48;10.10;99.90
4052;DHT22;2040;50.924;11.604;2023-12-29T13:03:15;10.00;99.90
4052;DHT22;2040;50.924;11.604;2023-12-29T13:05:41;10.00;99.90
4052;DHT22;2040;50.924;11.604;2023-12-29T13:08:07;10.00;99.90
4052;DHT22;2040;50.924;11.604;2023-12-29T13:10:33;10.00;99.90
4052;DHT22;2040;50.924;11.604;2023-12-29T13:12:58;10.00;99.90
4052;DHT22;2040;50.924;11.604;2023-12-29T13:15:24;10.10;99.90
4052;DHT22;2040;50.924;11.604;2023-12-29T13:17:51;10.20;99.90
4052;DHT22;2040;50.924;11.604;2023-12-29T13:20:16;10.10;99.90
4052;DHT22;2040;50.924;11.604;2023-12-29T13:22:43;10.20;99.90
4052;DHT22;2040;50.924;11.604;2023-12-29T13:25:10;10.30;99.90
4052;DHT22;2040;50.924;11.604;2023-12-29T13:27:40;10.30;99.90
4052;DHT22;2040;50.924;11.604;2023-12-29T13:30:07;10.30;99.90
4052;DHT22;2040;50.924;11.604;2023-12-29T13:32:33;10.30;99.90
4052;DHT22;2040;50.924;11.604;2023-12-29T13:37:41;10.30;99.90
4052;DHT22;2040;50.924;11.604;2023-12-29T13:40:36;10.30;99.90
4052;DHT22;2040;50.924;11.604;2023-12-29T13:43:04;10.20;99.90
4052;DHT22;2040;50.924;11.604;2023-12-29T13:45:33;10.20;99.90
4052;DHT22;2040;50.924;11.604;2023-12-29T13:48:00;10.20;99.90
4052;DHT22;2040;50.924;11.604;2023-12-29T13:50:26;10.10;99.90
4052;DHT22;2040;50.924;11.604;2023-12-29T13:52:52;10.10;99.90
4052;DHT22;2040;50.924;11.604;2023-12-29T13:55:21;10.10;99.90
4052;DHT22;2040;50.924;11.604;2023-12-29T13:57:48;10.10;99.90
4052;DHT22;2040;50.924;11.604;2023-12-29T14:00:21;10.00;99.90
4052;DHT22;2040;50.924;11.604;2023-12-29T14:03:11;10.10;99.90
4052;DHT22;2040;50.924;11.604;2023-12-29T14:05:43;10.00;99.90
4052;DHT22;2040;50.924;11.604;2023-12-29T14:08:26;10.00;99.90
4052;DHT22;2040;50.924;11.604;2023-12-29T14:10:52;10.00;99.90
4052;DHT22;2040;50.924;11.604;2023-12-29T14:13:19;10.00;99.90
4052;DHT22;2040;50.924;11.604;2023-12-29T14:15:45;10.00;99.90
4052;DHT22;2040;50.924;11.604;2023-12-29T14:21:02;9.90;99.90
4052;DHT22;2040;50.924;11.604;2023-12-29T14:23:27;9.90;99.90
4052;DHT22;2040;50.924;11.604;2023-12-29T14:25:53;9.80;99.90
4052;DHT22;2040;50.924;11.604;2023-12-29T14:28:26;9.80;99.90
4052;DHT22;2040;50.924;11.604;2023-12-29T14:31:01;9.70;99.90
4052;DHT22;2040;50.924;11.604;2023-12-29T14:33:27;9.70;99.90
4052;DHT22;2040;50.924;11.604;2023-12-29T14:35:52;9.70;99.90
4052;DHT22;2040;50.924;11.604;2023-12-29T14:38:18;9.80;99.90
4052;DHT22;2040;50.924;11.604;2023-12-29T14:40:45;9.70;99.90
4052;DHT22;2040;50.924;11.604;2023-12-29T14:43:11;9.70;99.90
4052;DHT22;2040;50.924;11.604;2023-12-29T14:45:36;9.70;99.90
4052;DHT22;2040;50.924;11.604;2023-12-29T14:48:02;9.70;99.90
4052;DHT22;2040;50.924;11.604;2023-12-29T14:50:27;9.70;99.90
4052;DHT22;2040;50.924;11.604;2023-12-29T14:52:55;9.60;99.90
4052;DHT22;2040;50.924;11.604;2023-12-29T14:55:21;9.60;99.90
4052;DHT22;2040;50.924;11.604;2023-12-29T14:57:46;9.60;99.90
4052;DHT22;2040;50.924;11.604;2023-12-29T15:00:12;9.60;99.90
4052;DHT22;2040;50.924;11.604;2023-12-29T15:02:38;9.60;99.90
4052;DHT22;2040;50.924;11.604;2023-12-29T15:05:04;9.60;99.90
4052;DHT22;2040;50.924;11.604;2023-12-29T15:07:29;9.60;99.90
4052;DHT22;2040;50.924;11.604;2023-12-29T15:09:59;9.60;99.90
4052;DHT22;2040;50.924;11.604;2023-12-29T15:12:24;9.50;99.90
4052;DHT22;2040;50.924;11.604;2023-12-29T15:14:50;9.60;99.90
4052;DHT22;2040;50.924;11.604;2023-12-29T15:17:15;9.50;99.90
4052;DHT22;2040;50.924;11.604;2023-12-29T15:19:41;9.50;99.90
4052;DHT22;2040;50.924;11.604;2023-12-29T15:22:06;9.50;99.90
4052;DHT22;2040;50.924;11.604;2023-12-29T15:24:32;9.50;99.90
4052;DHT22;2040;50.924;11.604;2023-12-29T15:26:58;9.30;99.90
4052;DHT22;2040;50.924;11.604;2023-12-29T15:29:23;9.30;99.90
4052;DHT22;2040;50.924;11.604;2023-12-29T15:31:49;9.20;99.90
4052;DHT22;2040;50.924;11.604;2023-12-29T15:34:15;9.10;99.90
4052;DHT22;2040;50.924;11.604;2023-12-29T15:36:41;9.10;99.90
4052;DHT22;2040;50.924;11.604;2023-12-29T15:39:06;9.10;99.90
4052;DHT22;2040;50.924;11.604;2023-12-29T15:41:32;9.00;99.90
4052;DHT22;2040;50.924;11.604;2023-12-29T15:43:58;9.20;99.90
4052;DHT22;2040;50.924;11.604;2023-12-29T15:46:24;9.10;99.90
4052;DHT22;2040;50.924;11.604;2023-12-29T15:48:50;9.10;99.90
4052;DHT22;2040;50.924;11.604;2023-12-29T15:51:15;9.20;99.90
4052;DHT22;2040;50.924;11.604;2023-12-29T15:53:41;9.20;99.90
4052;DHT22;2040;50.924;11.604;2023-12-29T15:56:07;9.20;99.90
4052;DHT22;2040;50.924;11.604;2023-12-29T15:58:33;9.20;99.90
4052;DHT22;2040;50.924;11.604;2023-12-29T16:01:01;9.30;99.90
4052;DHT22;2040;50.924;11.604;2023-12-29T16:03:26;9.30;99.90
4052;DHT22;2040;50.924;11.604;2023-12-29T16:05:52;9.30;99.90
4052;DHT22;2040;50.924;11.604;2023-12-29T16:08:17;9.40;99.90
4052;DHT22;2040;50.924;11.604;2023-12-29T16:10:43;9.50;99.90
4052;DHT22;2040;50.924;11.604;2023-12-29T16:13:08;9.40;99.90